Time;durP1;ratioP1;P1;durP2;ratioP2;P2;SDS_P1;SDS_P2;PMS_P1;PMS_P2;Temp;Humidity;BMP_temperature;BMP_pressure;BME280_temperature;BME280_humidity;BME280_pressure;Samples;Min_cycle;Max_cycle;Signal;HPM_P1;HPM_P2
2023/12/24 00:01:15;;;;;;;15.57;5.63;;;;;;;;;;5052673;28;20214;-76
2023/12/24 00:04:00;;;;;;;14.33;5.53;;;;;;;;;;5053016;28;20192;-76
2023/12/24 00:06:28;;;;;;;8.83;4.20;;;;;;;;;;5052542;28;20204;-76
2023/12/24 00:08:55;;;;;;;12.83;4.90;;;;;;;;;;5052438;28;20641;-76
2023/12/24 00:11:22;;;;;;;12.73;5.50;;;;;;;;;;5052339;28;20204;-76
2023/12/24 00:13:49;;;;;;;15.87;4.27;;;;;;;;;;5052468;28;20218;-76
2023/12/24 00:16:16;;;;;;;13.47;4.90;;;;;;;;;;5052136;28;20810;-76
2023/12/24 00:18:43;;;;;;;13.57;4.63;;;;;;;;;;5052519;28;20211;-76
2023/12/24 00:21:13;;;;;;;11.67;4.77;;;;;;;;;;5052192;28;20223;-76
2023/12/24 00:23:42;;;;;;;9.50;4.60;;;;;;;;;;5051235;28;20207;-76
2023/12/24 00:26:09;;;;;;;8.93;4.53;;;;;;;;;;5034976;28;20602;-76
2023/12/24 00:28:37;;;;;;;10.70;4.10;;;;;;;;;;5051070;28;20196;-76
2023/12/24 00:31:04;;;;;;;13.93;4.37;;;;;;;;;;5051957;28;20208;-76
2023/12/24 00:33:31;;;;;;;7.50;2.93;;;;;;;;;;5050981;28;20196;-76
2023/12/24 00:35:58;;;;;;;10.00;4.17;;;;;;;;;;5050435;28;20216;-76
2023/12/24 00:38:25;;;;;;;8.87;4.60;;;;;;;;;;5052088;28;20196;-76
2023/12/24 00:40:52;;;;;;;8.60;4.30;;;;;;;;;;5051722;28;20227;-76
2023/12/24 00:43:20;;;;;;;9.93;4.10;;;;;;;;;;5052240;28;20215;-76
2023/12/24 00:45:47;;;;;;;12.43;4.93;;;;;;;;;;5050710;28;20249;-76
2023/12/24 00:48:14;;;;;;;16.67;4.80;;;;;;;;;;5034181;28;20199;-76
2023/12/24 00:50:42;;;;;;;12.90;5.03;;;;;;;;;;5050061;28;20204;-76
2023/12/24 00:53:09;;;;;;;13.70;4.40;;;;;;;;;;5050568;28;20207;-76
2023/12/24 00:55:36;;;;;;;9.63;4.57;;;;;;;;;;5051547;28;20212;-76
2023/12/24 00:58:04;;;;;;;13.43;5.07;;;;;;;;;;5050233;28;20207;-76
2023/12/24 01:00:30;;;;;;;8.13;4.37;;;;;;;;;;5051402;28;20203;-76
2023/12/24 01:02:58;;;;;;;10.97;5.40;;;;;;;;;;5051340;28;20683;-76
2023/12/24 01:05:25;;;;;;;18.33;6.40;;;;;;;;;;5051301;28;20208;-76
2023/12/24 01:07:52;;;;;;;14.00;5.43;;;;;;;;;;5050181;28;20219;-75
2023/12/24 01:10:21;;;;;;;15.77;6.37;;;;;;;;;;5049957;28;20629;-74
2023/12/24 01:12:48;;;;;;;16.57;5.63;;;;;;;;;;5049771;28;20192;-74
2023/12/24 01:15:15;;;;;;;14.70;5.27;;;;;;;;;;5049959;28;20736;-75
2023/12/24 01:17:43;;;;;;;16.20;5.60;;;;;;;;;;5049801;28;20739;-74
2023/12/24 01:20:16;;;;;;;8.17;4.93;;;;;;;;;;5049701;28;20270;-75
2023/12/24 01:22:44;;;;;;;17.13;6.00;;;;;;;;;;5049694;28;20889;-75
2023/12/24 01:25:14;;;;;;;13.57;6.23;;;;;;;;;;5032610;28;20779;-75
2023/12/24 01:27:41;;;;;;;16.27;6.27;;;;;;;;;;5051335;28;20669;-74
2023/12/24 01:30:10;;;;;;;15.13;5.53;;;;;;;;;;5049761;28;20203;-75
2023/12/24 01:32:37;;;;;;;9.43;4.97;;;;;;;;;;5049782;28;20669;-76
2023/12/24 01:35:05;;;;;;;27.77;7.63;;;;;;;;;;5049655;28;20223;-76
2023/12/24 01:37:32;;;;;;;16.00;5.63;;;;;;;;;;5049696;28;20354;-76
2023/12/24 01:39:59;;;;;;;9.87;5.77;;;;;;;;;;5049728;28;20550;-76
2023/12/24 01:42:26;;;;;;;14.40;5.87;;;;;;;;;;5049756;28;20196;-76
2023/12/24 01:44:53;;;;;;;21.07;7.60;;;;;;;;;;5050781;28;20212;-76
2023/12/24 01:47:21;;;;;;;34.07;9.07;;;;;;;;;;5049493;28;20204;-76
2023/12/24 01:49:49;;;;;;;23.27;6.70;;;;;;;;;;5051121;28;20204;-76
2023/12/24 01:52:17;;;;;;;9.87;4.57;;;;;;;;;;5049734;28;20257;-76
2023/12/24 01:54:46;;;;;;;12.77;5.63;;;;;;;;;;5033530;28;20196;-76
2023/12/24 01:57:13;;;;;;;9.63;4.40;;;;;;;;;;5049672;28;20685;-76
2023/12/24 01:59:41;;;;;;;8.47;4.43;;;;;;;;;;5033377;28;20208;-76
2023/12/24 02:02:09;;;;;;;10.10;5.03;;;;;;;;;;5049580;28;20200;-76
2023/12/24 02:04:36;;;;;;;9.73;4.93;;;;;;;;;;5049715;28;20219;-76
2023/12/24 02:07:04;;;;;;;9.53;4.03;;;;;;;;;;5050666;28;20200;-77
2023/12/24 02:09:31;;;;;;;15.27;5.07;;;;;;;;;;5049504;28;20204;-77
2023/12/24 02:11:58;;;;;;;7.13;3.80;;;;;;;;;;5049412;28;20204;-76
2023/12/24 02:14:25;;;;;;;10.93;3.47;;;;;;;;;;5049615;28;20288;-76
2023/12/24 02:16:56;;;;;;;7.13;3.33;;;;;;;;;;5049250;28;20256;-76
2023/12/24 02:19:24;;;;;;;7.67;3.60;;;;;;;;;;5049563;28;20208;-76
2023/12/24 02:21:51;;;;;;;7.73;3.60;;;;;;;;;;5049080;28;20244;-76
2023/12/24 02:24:18;;;;;;;7.57;3.30;;;;;;;;;;5033001;28;20661;-76
2023/12/24 02:27:00;;;;;;;13.43;4.60;;;;;;;;;;5049435;28;20204;-77
2023/12/24 02:29:31;;;;;;;12.60;3.70;;;;;;;;;;5050727;28;20203;-75
2023/12/24 02:32:05;;;;;;;10.97;4.13;;;;;;;;;;5032855;28;20736;-75
2023/12/24 02:34:33;;;;;;;5.80;3.43;;;;;;;;;;5049338;28;20211;-75
2023/12/24 02:37:00;;;;;;;8.43;3.40;;;;;;;;;;5050363;28;20220;-76
2023/12/24 02:39:27;;;;;;;8.03;3.17;;;;;;;;;;5053371;28;20200;-76
2023/12/24 02:41:55;;;;;;;10.67;4.03;;;;;;;;;;5052654;28;20215;-76
2023/12/24 02:44:22;;;;;;;8.17;3.80;;;;;;;;;;5052784;28;20221;-75
2023/12/24 02:46:49;;;;;;;6.27;3.30;;;;;;;;;;5054044;28;20266;-75
2023/12/24 02:49:18;;;;;;;5.70;2.53;;;;;;;;;;5052634;28;20580;-75
2023/12/24 02:51:45;;;;;;;6.10;2.70;;;;;;;;;;5053798;28;20204;-76
2023/12/24 02:54:12;;;;;;;6.87;2.63;;;;;;;;;;5052844;28;20200;-76
2023/12/24 02:56:40;;;;;;;9.23;2.90;;;;;;;;;;5052673;28;20231;-75
2023/12/24 02:59:07;;;;;;;7.53;3.07;;;;;;;;;;5052367;28;20207;-76
2023/12/24 03:01:35;;;;;;;8.70;3.10;;;;;;;;;;5036294;28;20242;-76
2023/12/24 03:04:02;;;;;;;14.20;3.00;;;;;;;;;;5052285;28;20211;-76
2023/12/24 03:06:29;;;;;;;6.43;2.57;;;;;;;;;;5035775;28;20196;-76
2023/12/24 03:08:56;;;;;;;7.23;2.43;;;;;;;;;;5053594;28;20199;-76
2023/12/24 03:11:24;;;;;;;8.23;3.23;;;;;;;;;;5052447;28;20548;-76
2023/12/24 03:13:51;;;;;;;6.67;2.50;;;;;;;;;;5053699;28;20198;-76
2023/12/24 03:16:18;;;;;;;7.97;2.83;;;;;;;;;;5053262;28;20196;-76
2023/12/24 03:18:45;;;;;;;6.27;3.03;;;;;;;;;;5052123;28;20283;-76
2023/12/24 03:21:12;;;;;;;11.37;3.27;;;;;;;;;;5051874;28;20244;-76
2023/12/24 03:23:39;;;;;;;10.30;3.90;;;;;;;;;;5053437;28;20270;-76
2023/12/24 03:26:18;;;;;;;11.30;5.07;;;;;;;;;;5053275;28;20203;-77
2023/12/24 03:28:47;;;;;;;9.80;3.80;;;;;;;;;;5052213;28;20242;-77
2023/12/24 03:31:15;;;;;;;10.20;4.10;;;;;;;;;;5051796;28;20200;-76
2023/12/24 03:33:44;;;;;;;12.87;4.03;;;;;;;;;;5053411;28;20337;-76
2023/12/24 03:36:11;;;;;;;12.40;4.00;;;;;;;;;;5053209;28;20257;-76
2023/12/24 03:38:40;;;;;;;14.23;3.83;;;;;;;;;;5019516;28;20231;-76
2023/12/24 03:41:07;;;;;;;10.83;3.47;;;;;;;;;;5051714;28;20672;-74
2023/12/24 03:43:35;;;;;;;10.87;3.93;;;;;;;;;;5052004;28;20212;-76
2023/12/24 03:46:03;;;;;;;4.37;3.03;;;;;;;;;;5051513;28;20200;-76
2023/12/24 03:48:33;;;;;;;12.73;4.50;;;;;;;;;;5034817;28;20215;-75
2023/12/24 03:51:01;;;;;;;8.10;3.80;;;;;;;;;;5035265;28;20649;-76
2023/12/24 03:53:28;;;;;;;13.20;4.23;;;;;;;;;;5035130;28;20211;-76
2023/12/24 03:55:56;;;;;;;7.53;3.87;;;;;;;;;;5052780;28;20203;-76
2023/12/24 03:58:23;;;;;;;9.50;3.20;;;;;;;;;;5051252;28;20277;-75
2023/12/24 04:00:50;;;;;;;6.90;2.97;;;;;;;;;;5051735;28;20211;-76
2023/12/24 04:03:17;;;;;;;14.47;4.63;;;;;;;;;;5051579;28;20200;-76
2023/12/24 04:05:44;;;;;;;9.37;3.30;;;;;;;;;;5051463;28;20845;-76
2023/12/24 04:08:11;;;;;;;13.07;3.57;;;;;;;;;;5051671;28;20665;-76
2023/12/24 04:10:39;;;;;;;12.47;4.20;;;;;;;;;;5051326;28;20208;-76
2023/12/24 04:13:12;;;;;;;6.90;2.70;;;;;;;;;;5052672;28;20204;-75
2023/12/24 04:15:39;;;;;;;10.50;3.00;;;;;;;;;;5052382;28;20208;-76
2023/12/24 04:18:06;;;;;;;6.37;2.80;;;;;;;;;;5052499;28;20216;-76
2023/12/24 04:20:34;;;;;;;9.73;3.43;;;;;;;;;;5051370;28;20211;-76
2023/12/24 04:23:01;;;;;;;11.03;3.30;;;;;;;;;;5050975;28;20232;-76
2023/12/24 04:25:28;;;;;;;7.83;3.27;;;;;;;;;;5050971;28;20257;-76
2023/12/24 04:27:56;;;;;;;13.70;3.57;;;;;;;;;;5051165;28;20227;-75
2023/12/24 04:30:23;;;;;;;5.13;2.57;;;;;;;;;;5050740;28;20209;-75
2023/12/24 04:32:50;;;;;;;8.97;3.13;;;;;;;;;;5050714;28;20310;-75
2023/12/24 04:35:18;;;;;;;8.83;3.77;;;;;;;;;;5050872;28;20204;-75
2023/12/24 04:37:45;;;;;;;8.67;3.07;;;;;;;;;;5050686;28;20220;-75
2023/12/24 04:40:13;;;;;;;9.43;2.70;;;;;;;;;;5051800;28;20229;-75
2023/12/24 04:42:39;;;;;;;3.90;2.33;;;;;;;;;;5034054;28;20287;-76
2023/12/24 04:45:07;;;;;;;5.93;2.70;;;;;;;;;;5050610;28;20968;-75
2023/12/24 04:47:34;;;;;;;6.77;2.80;;;;;;;;;;5050583;28;20286;-76
2023/12/24 04:50:02;;;;;;;7.00;3.07;;;;;;;;;;5050438;28;20253;-77
2023/12/24 04:52:29;;;;;;;11.27;2.80;;;;;;;;;;5050383;28;20200;-76
2023/12/24 04:54:56;;;;;;;13.47;4.13;;;;;;;;;;5050675;28;20203;-76
2023/12/24 04:57:25;;;;;;;12.00;4.07;;;;;;;;;;5050264;28;20263;-76
2023/12/24 04:59:52;;;;;;;7.80;3.17;;;;;;;;;;5049748;28;20211;-76
2023/12/24 05:02:19;;;;;;;5.63;2.50;;;;;;;;;;5049990;28;20267;-76
2023/12/24 05:04:48;;;;;;;7.83;2.63;;;;;;;;;;5051508;28;20200;-76
2023/12/24 05:07:16;;;;;;;5.90;2.90;;;;;;;;;;5033588;28;20242;-75
2023/12/24 05:09:43;;;;;;;4.70;2.43;;;;;;;;;;5051380;28;20200;-76
2023/12/24 05:12:12;;;;;;;5.53;2.70;;;;;;;;;;5033854;28;20211;-75
2023/12/24 05:14:40;;;;;;;7.17;3.27;;;;;;;;;;5051442;28;20687;-76
2023/12/24 05:17:07;;;;;;;5.30;2.67;;;;;;;;;;5049732;28;20193;-76
2023/12/24 05:19:34;;;;;;;3.13;2.07;;;;;;;;;;5050107;28;20200;-77
2023/12/24 05:22:01;;;;;;;5.77;2.53;;;;;;;;;;5050893;28;20232;-77
2023/12/24 05:24:28;;;;;;;2.50;1.93;;;;;;;;;;5050419;28;20196;-76
2023/12/24 05:26:55;;;;;;;7.87;2.23;;;;;;;;;;5051431;28;20196;-77
2023/12/24 05:29:22;;;;;;;2.97;1.80;;;;;;;;;;5049926;28;20208;-75
2023/12/24 05:31:49;;;;;;;5.93;1.90;;;;;;;;;;5051270;28;20203;-75
2023/12/24 05:34:17;;;;;;;2.97;2.03;;;;;;;;;;5051035;28;20254;-75
2023/12/24 05:36:44;;;;;;;2.67;2.10;;;;;;;;;;5051087;28;20203;-75
2023/12/24 05:39:11;;;;;;;5.10;2.43;;;;;;;;;;5050975;28;20274;-75
2023/12/24 05:41:38;;;;;;;4.40;2.17;;;;;;;;;;5051080;28;20287;-75
2023/12/24 05:44:05;;;;;;;3.43;2.23;;;;;;;;;;5051127;28;20215;-75
2023/12/24 05:46:32;;;;;;;4.83;2.33;;;;;;;;;;5050983;28;20227;-75
2023/12/24 05:48:59;;;;;;;3.47;1.97;;;;;;;;;;5051231;28;20675;-76
2023/12/24 05:51:27;;;;;;;4.80;1.90;;;;;;;;;;5051073;28;20200;-76
2023/12/24 05:53:54;;;;;;;4.27;1.97;;;;;;;;;;5050951;28;20234;-76
2023/12/24 05:56:21;;;;;;;4.93;2.30;;;;;;;;;;5050949;28;20196;-75
2023/12/24 05:58:48;;;;;;;8.73;2.33;;;;;;;;;;5050882;28;20212;-75
2023/12/24 06:01:15;;;;;;;8.90;2.47;;;;;;;;;;5049262;28;20277;-77
2023/12/24 06:03:43;;;;;;;8.27;2.70;;;;;;;;;;5049490;28;20215;-77
2023/12/24 06:06:10;;;;;;;5.33;2.70;;;;;;;;;;5050339;28;20199;-76
2023/12/24 06:08:38;;;;;;;6.80;3.13;;;;;;;;;;5054740;28;20240;-76
2023/12/24 06:11:05;;;;;;;8.07;2.27;;;;;;;;;;5056123;28;20222;-76
2023/12/24 06:13:32;;;;;;;8.77;3.83;;;;;;;;;;5073081;28;20235;-77
2023/12/24 06:15:59;;;;;;;6.33;2.50;;;;;;;;;;5073422;28;20227;-76
2023/12/24 06:18:27;;;;;;;15.17;4.20;;;;;;;;;;5071242;28;20306;-79
2023/12/24 06:20:54;;;;;;;9.73;2.63;;;;;;;;;;5073164;28;20251;-78
2023/12/24 06:23:21;;;;;;;11.03;3.80;;;;;;;;;;5072524;28;20235;-78
2023/12/24 06:25:48;;;;;;;8.37;2.90;;;;;;;;;;5073894;28;20231;-77
2023/12/24 06:28:15;;;;;;;10.80;3.67;;;;;;;;;;5073290;28;20235;-77
2023/12/24 06:30:42;;;;;;;11.30;3.50;;;;;;;;;;5073640;28;20223;-77
2023/12/24 06:33:10;;;;;;;11.20;4.07;;;;;;;;;;5073061;28;20239;-78
2023/12/24 06:35:37;;;;;;;9.13;4.67;;;;;;;;;;5073550;28;20227;-77
2023/12/24 06:38:04;;;;;;;21.67;8.17;;;;;;;;;;5073934;28;20231;-77
2023/12/24 06:40:31;;;;;;;16.43;6.83;;;;;;;;;;5073917;28;20218;-77
2023/12/24 06:42:59;;;;;;;6.97;3.37;;;;;;;;;;5073714;28;20203;-77
2023/12/24 06:45:26;;;;;;;8.23;3.30;;;;;;;;;;5074110;28;20196;-77
2023/12/24 06:47:53;;;;;;;8.10;3.03;;;;;;;;;;5073814;28;20272;-77
2023/12/24 06:50:22;;;;;;;8.43;3.40;;;;;;;;;;5072777;28;20196;-77
2023/12/24 06:52:49;;;;;;;5.10;3.03;;;;;;;;;;5073783;28;20203;-77
2023/12/24 06:55:17;;;;;;;10.17;3.73;;;;;;;;;;5073801;28;20195;-77
2023/12/24 06:57:44;;;;;;;9.07;3.63;;;;;;;;;;5073619;28;20242;-77
2023/12/24 07:00:11;;;;;;;8.80;3.60;;;;;;;;;;5073818;28;20255;-77
2023/12/24 07:02:39;;;;;;;5.47;3.30;;;;;;;;;;5073790;28;20199;-77
2023/12/24 07:05:06;;;;;;;9.30;3.10;;;;;;;;;;5074075;28;20190;-76
2023/12/24 07:07:33;;;;;;;6.20;3.63;;;;;;;;;;5073821;28;20203;-77
2023/12/24 07:10:00;;;;;;;21.77;4.87;;;;;;;;;;5073613;28;20214;-77
2023/12/24 07:12:30;;;;;;;13.30;3.70;;;;;;;;;;5073596;28;20211;-77
2023/12/24 07:14:57;;;;;;;6.47;3.83;;;;;;;;;;5073547;28;20231;-77
2023/12/24 07:17:24;;;;;;;11.33;4.37;;;;;;;;;;5073464;28;20278;-77
2023/12/24 07:19:51;;;;;;;9.97;4.63;;;;;;;;;;5072307;28;20204;-77
2023/12/24 07:22:19;;;;;;;9.67;3.70;;;;;;;;;;5071880;28;20257;-77
2023/12/24 07:24:46;;;;;;;8.57;3.60;;;;;;;;;;5072459;28;20202;-77
2023/12/24 07:27:14;;;;;;;10.70;4.80;;;;;;;;;;5072331;28;20199;-77
2023/12/24 07:29:41;;;;;;;6.37;3.30;;;;;;;;;;5073542;28;20223;-77
2023/12/24 07:32:09;;;;;;;11.00;3.93;;;;;;;;;;5073132;28;20192;-77
2023/12/24 07:34:36;;;;;;;8.53;3.40;;;;;;;;;;5073129;28;20630;-77
2023/12/24 07:37:03;;;;;;;5.43;3.20;;;;;;;;;;5072956;28;20204;-76
2023/12/24 07:39:30;;;;;;;9.30;4.60;;;;;;;;;;5073288;28;20259;-76
2023/12/24 07:41:57;;;;;;;7.43;4.07;;;;;;;;;;5071855;28;20188;-77
2023/12/24 07:44:24;;;;;;;13.73;4.50;;;;;;;;;;5071539;28;20210;-77
2023/12/24 07:46:52;;;;;;;11.90;4.23;;;;;;;;;;5072622;28;20251;-77
2023/12/24 07:49:19;;;;;;;21.63;8.27;;;;;;;;;;5072827;28;20227;-77
2023/12/24 07:51:47;;;;;;;17.90;5.53;;;;;;;;;;5072331;28;20253;-77
2023/12/24 07:54:14;;;;;;;11.47;4.00;;;;;;;;;;5073072;28;20671;-77
2023/12/24 07:56:41;;;;;;;12.30;4.57;;;;;;;;;;5071404;28;20204;-77
2023/12/24 07:59:08;;;;;;;9.83;3.73;;;;;;;;;;5072304;28;20222;-77
2023/12/24 08:01:39;;;;;;;6.90;3.20;;;;;;;;;;5072333;28;20562;-77
2023/12/24 08:04:06;;;;;;;7.97;3.70;;;;;;;;;;5072575;28;20227;-77
2023/12/24 08:06:33;;;;;;;12.00;4.70;;;;;;;;;;5072341;28;20203;-77
2023/12/24 08:09:02;;;;;;;9.77;3.87;;;;;;;;;;5064173;28;20258;-77
2023/12/24 08:11:29;;;;;;;11.70;5.20;;;;;;;;;;5058534;28;20273;-77
2023/12/24 08:13:56;;;;;;;11.77;4.03;;;;;;;;;;5052475;28;20290;-77
2023/12/24 08:16:23;;;;;;;16.47;5.53;;;;;;;;;;5070546;28;20223;-77
2023/12/24 08:18:50;;;;;;;11.67;3.90;;;;;;;;;;5052525;28;20251;-77
2023/12/24 08:21:18;;;;;;;9.60;3.53;;;;;;;;;;5050136;28;20260;-77
2023/12/24 08:23:45;;;;;;;9.60;4.17;;;;;;;;;;5058547;28;20802;-76
2023/12/24 08:26:12;;;;;;;16.00;4.63;;;;;;;;;;5065307;28;20288;-77
2023/12/24 08:28:40;;;;;;;9.83;3.90;;;;;;;;;;5071108;28;20231;-77
2023/12/24 08:31:08;;;;;;;8.97;6.03;;;;;;;;;;5068649;28;20239;-77
2023/12/24 08:33:35;;;;;;;14.80;6.87;;;;;;;;;;5071247;28;20281;-77
2023/12/24 08:36:03;;;;;;;8.77;4.27;;;;;;;;;;5070158;28;20219;-77
2023/12/24 08:38:30;;;;;;;12.37;6.13;;;;;;;;;;5070426;28;20235;-77
2023/12/24 08:40:57;;;;;;;13.77;5.83;;;;;;;;;;5070481;28;20231;-76
2023/12/24 08:43:24;;;;;;;19.67;8.07;;;;;;;;;;5070805;28;20227;-77
2023/12/24 08:45:52;;;;;;;12.70;5.20;;;;;;;;;;5070581;28;20220;-78
2023/12/24 08:48:18;;;;;;;14.60;4.70;;;;;;;;;;5071131;28;20318;-77
2023/12/24 08:50:46;;;;;;;15.73;7.00;;;;;;;;;;5071011;28;20266;-77
2023/12/24 08:53:13;;;;;;;19.37;5.67;;;;;;;;;;5071301;28;20230;-77
2023/12/24 08:55:40;;;;;;;14.33;5.00;;;;;;;;;;5069288;28;20703;-78
2023/12/24 08:58:07;;;;;;;19.63;6.20;;;;;;;;;;5069921;28;20231;-77
2023/12/24 09:00:35;;;;;;;14.03;5.10;;;;;;;;;;5070521;28;20243;-82
2023/12/24 09:03:02;;;;;;;16.63;6.03;;;;;;;;;;5070705;28;20238;-80
2023/12/24 09:05:30;;;;;;;17.73;5.00;;;;;;;;;;5071105;28;20334;-77
2023/12/24 09:07:57;;;;;;;15.67;5.40;;;;;;;;;;5070742;28;20696;-78
2023/12/24 09:10:24;;;;;;;24.10;6.97;;;;;;;;;;5070513;28;20316;-78
2023/12/24 09:12:51;;;;;;;18.63;7.73;;;;;;;;;;5071154;28;20219;-78
2023/12/24 09:15:19;;;;;;;14.80;5.07;;;;;;;;;;5070258;28;20235;-74
2023/12/24 09:17:46;;;;;;;22.03;6.63;;;;;;;;;;5070621;28;20238;-75
2023/12/24 09:20:14;;;;;;;23.47;7.33;;;;;;;;;;5070282;28;20245;-73
2023/12/24 09:22:41;;;;;;;50.53;14.03;;;;;;;;;;5070202;28;20247;-75
2023/12/24 09:25:08;;;;;;;19.40;6.43;;;;;;;;;;5045372;28;20231;-75
2023/12/24 09:27:35;;;;;;;30.50;7.50;;;;;;;;;;5069335;28;20285;-75
2023/12/24 09:30:04;;;;;;;19.37;6.03;;;;;;;;;;5069546;28;20589;-76
2023/12/24 09:32:32;;;;;;;11.17;4.97;;;;;;;;;;5069332;28;20325;-76
2023/12/24 09:35:00;;;;;;;23.77;9.03;;;;;;;;;;5069550;28;20231;-74
2023/12/24 09:37:27;;;;;;;18.27;5.13;;;;;;;;;;5069077;28;20726;-74
2023/12/24 09:39:54;;;;;;;23.00;6.77;;;;;;;;;;5068878;28;20246;-75
2023/12/24 09:42:21;;;;;;;16.80;5.23;;;;;;;;;;5068869;28;20223;-74
2023/12/24 09:44:48;;;;;;;16.87;5.13;;;;;;;;;;5068232;28;20231;-75
2023/12/24 09:47:15;;;;;;;17.30;4.80;;;;;;;;;;5068531;28;20219;-73
2023/12/24 09:49:42;;;;;;;19.97;5.43;;;;;;;;;;5069114;28;20224;-74
2023/12/24 09:52:09;;;;;;;9.93;4.43;;;;;;;;;;5069097;28;20235;-73
2023/12/24 09:54:37;;;;;;;25.67;6.10;;;;;;;;;;5068742;28;20246;-81
2023/12/24 09:57:04;;;;;;;12.60;4.30;;;;;;;;;;5069539;28;20242;-80
2023/12/24 09:59:31;;;;;;;12.60;4.73;;;;;;;;;;5070008;28;20242;-80
2023/12/24 10:01:58;;;;;;;18.87;6.57;;;;;;;;;;5069593;28;20314;-80
2023/12/24 10:04:26;;;;;;;13.10;5.17;;;;;;;;;;5070583;28;20242;-80
2023/12/24 10:06:57;;;;;;;14.10;5.80;;;;;;;;;;5069726;28;20233;-81
2023/12/24 10:09:45;;;;;;;17.77;5.80;;;;;;;;;;5069220;28;20700;-81
2023/12/24 10:12:12;;;;;;;13.13;4.70;;;;;;;;;;5069631;28;20239;-81
2023/12/24 10:14:40;;;;;;;19.40;6.17;;;;;;;;;;5069348;28;20322;-81
2023/12/24 10:17:07;;;;;;;12.90;5.73;;;;;;;;;;5068997;28;20254;-81
2023/12/24 10:19:35;;;;;;;12.23;6.90;;;;;;;;;;5070363;28;20235;-81
2023/12/24 10:22:05;;;;;;;18.10;6.47;;;;;;;;;;5069648;28;20234;-80
2023/12/24 10:24:35;;;;;;;16.17;6.13;;;;;;;;;;5069542;28;20223;-81
2023/12/24 10:27:04;;;;;;;16.33;5.50;;;;;;;;;;5069815;28;20243;-80
2023/12/24 10:29:34;;;;;;;13.00;4.60;;;;;;;;;;5069895;28;20288;-80
2023/12/24 10:32:02;;;;;;;23.77;7.67;;;;;;;;;;5069705;28;20270;-80
2023/12/24 10:34:30;;;;;;;36.60;9.33;;;;;;;;;;5070347;28;20292;-80
2023/12/24 10:36:59;;;;;;;16.67;5.93;;;;;;;;;;5069698;28;20326;-81
2023/12/24 10:39:27;;;;;;;22.80;7.40;;;;;;;;;;5069615;28;20249;-80
2023/12/24 10:41:55;;;;;;;15.47;6.83;;;;;;;;;;5069346;28;20265;-81
2023/12/24 10:44:23;;;;;;;20.13;6.90;;;;;;;;;;5067830;28;20234;-80
2023/12/24 10:46:51;;;;;;;24.57;6.37;;;;;;;;;;5068328;28;20235;-81
2023/12/24 10:49:18;;;;;;;19.90;6.33;;;;;;;;;;5069413;28;20211;-81
2023/12/24 10:51:45;;;;;;;25.73;8.50;;;;;;;;;;5067652;28;20389;-82
2023/12/24 10:54:13;;;;;;;18.13;7.03;;;;;;;;;;5068500;28;20234;-81
2023/12/24 10:56:56;;;;;;;29.30;6.87;;;;;;;;;;5069144;28;20274;-80
2023/12/24 10:59:37;;;;;;;25.37;7.77;;;;;;;;;;5069666;28;20288;-81
2023/12/24 11:02:04;;;;;;;24.67;6.90;;;;;;;;;;5072165;28;20289;-80
2023/12/24 11:04:45;;;;;;;19.47;7.27;;;;;;;;;;5071587;28;20231;-80
2023/12/24 11:07:34;;;;;;;17.50;6.50;;;;;;;;;;5071555;28;20591;-80
2023/12/24 11:10:03;;;;;;;22.00;7.00;;;;;;;;;;5072246;28;20228;-80
2023/12/24 11:12:32;;;;;;;31.93;8.50;;;;;;;;;;5073291;28;20238;-81
2023/12/24 11:15:00;;;;;;;14.87;7.07;;;;;;;;;;5072943;28;20223;-78
2023/12/24 11:17:33;;;;;;;16.63;6.33;;;;;;;;;;5072443;28;20293;-81
2023/12/24 11:20:23;;;;;;;17.73;5.50;;;;;;;;;;5072005;28;20325;-79
2023/12/24 11:23:02;;;;;;;14.47;5.50;;;;;;;;;;5071730;28;20374;-80
2023/12/24 11:25:35;;;;;;;19.20;8.00;;;;;;;;;;5065304;28;20234;-79
2023/12/24 11:28:08;;;;;;;12.87;5.00;;;;;;;;;;5073017;28;20214;-79
2023/12/24 11:30:51;;;;;;;12.67;3.90;;;;;;;;;;5073194;28;20215;-78
2023/12/24 11:33:45;;;;;;;14.30;6.00;;;;;;;;;;5070338;28;20203;-78
2023/12/24 11:36:14;;;;;;;20.90;5.80;;;;;;;;;;5056492;28;20247;-79
2023/12/24 11:38:41;;;;;;;19.23;6.10;;;;;;;;;;5070036;28;20234;-79
2023/12/24 11:41:11;;;;;;;13.67;5.40;;;;;;;;;;5070741;28;20243;-78
2023/12/24 11:43:42;;;;;;;8.30;4.07;;;;;;;;;;5072541;28;20240;-79
2023/12/24 11:46:09;;;;;;;19.20;7.37;;;;;;;;;;5064021;28;20708;-79
2023/12/24 11:48:36;;;;;;;11.50;5.03;;;;;;;;;;5056212;28;20223;-78
2023/12/24 11:51:06;;;;;;;20.67;5.97;;;;;;;;;;5069086;28;20598;-79
2023/12/24 11:53:37;;;;;;;17.93;6.00;;;;;;;;;;5071930;28;20356;-81
2023/12/24 11:56:13;;;;;;;15.10;5.90;;;;;;;;;;5072337;28;20723;-77
2023/12/24 11:58:42;;;;;;;18.03;6.57;;;;;;;;;;5072256;28;20246;-78
2023/12/24 12:01:09;;;;;;;20.37;6.70;;;;;;;;;;5071884;28;20239;-78
2023/12/24 12:03:37;;;;;;;17.17;7.03;;;;;;;;;;5070629;28;20296;-78
2023/12/24 12:06:06;;;;;;;13.70;7.73;;;;;;;;;;5071197;28;20246;-78
2023/12/24 12:08:33;;;;;;;11.93;5.17;;;;;;;;;;5072272;28;20239;-78
2023/12/24 12:11:01;;;;;;;32.17;9.47;;;;;;;;;;5071430;28;20326;-79
2023/12/24 12:13:29;;;;;;;34.20;9.00;;;;;;;;;;5071982;28;20315;-79
2023/12/24 12:15:57;;;;;;;25.77;7.73;;;;;;;;;;5071673;28;20269;-78
2023/12/24 12:18:24;;;;;;;19.60;7.07;;;;;;;;;;5071565;28;20223;-78
2023/12/24 12:20:51;;;;;;;18.23;7.53;;;;;;;;;;5070710;28;20246;-78
2023/12/24 12:23:20;;;;;;;33.70;9.97;;;;;;;;;;5071649;28;20234;-78
2023/12/24 12:25:48;;;;;;;22.53;8.00;;;;;;;;;;5069636;28;20227;-79
2023/12/24 12:28:15;;;;;;;19.70;8.00;;;;;;;;;;5071571;28;20243;-78
2023/12/24 12:30:44;;;;;;;15.60;6.87;;;;;;;;;;5071150;28;20228;-78
2023/12/24 12:33:12;;;;;;;19.73;8.83;;;;;;;;;;5071335;28;20702;-78
2023/12/24 12:35:39;;;;;;;17.40;7.13;;;;;;;;;;5070434;28;20227;-80
2023/12/24 12:38:06;;;;;;;19.70;7.00;;;;;;;;;;5069605;28;20227;-79
2023/12/24 12:40:33;;;;;;;28.93;9.10;;;;;;;;;;5070803;28;20242;-79
2023/12/24 12:43:09;;;;;;;19.47;7.63;;;;;;;;;;5071194;28;20230;-79
2023/12/24 12:45:36;;;;;;;15.43;6.13;;;;;;;;;;5071294;28;21041;-80
2023/12/24 12:48:04;;;;;;;16.80;7.63;;;;;;;;;;5070994;28;20231;-79
2023/12/24 12:50:32;;;;;;;46.13;13.07;;;;;;;;;;5066731;28;20250;-79
2023/12/24 12:52:59;;;;;;;20.70;7.87;;;;;;;;;;5065681;28;20679;-78
2023/12/24 12:55:27;;;;;;;19.13;7.53;;;;;;;;;;5069785;28;20230;-79
2023/12/24 12:57:54;;;;;;;15.63;7.90;;;;;;;;;;5069164;28;20696;-80
2023/12/24 13:00:23;;;;;;;20.47;7.07;;;;;;;;;;5068220;28;20231;-80
2023/12/24 13:02:50;;;;;;;62.87;15.60;;;;;;;;;;5070047;28;20333;-80
2023/12/24 13:05:32;;;;;;;59.53;16.17;;;;;;;;;;5069249;28;20227;-79
2023/12/24 13:08:00;;;;;;;19.13;8.03;;;;;;;;;;5050346;28;20236;-80
2023/12/24 13:10:28;;;;;;;23.53;9.63;;;;;;;;;;5052437;28;20224;-79
2023/12/24 13:13:04;;;;;;;24.17;9.37;;;;;;;;;;5070735;28;20695;-80
2023/12/24 13:15:32;;;;;;;31.77;10.60;;;;;;;;;;5071153;28;20227;-79
2023/12/24 13:18:26;;;;;;;34.37;13.63;;;;;;;;;;5070199;28;20322;-80
2023/12/24 13:20:54;;;;;;;36.13;19.87;;;;;;;;;;5068903;28;20230;-80
2023/12/24 13:23:23;;;;;;;40.50;12.53;;;;;;;;;;5070094;28;20235;-80
2023/12/24 13:25:54;;;;;;;25.50;10.00;;;;;;;;;;5070842;28;20710;-80
2023/12/24 13:28:22;;;;;;;22.20;9.60;;;;;;;;;;5070613;28;20334;-80
2023/12/24 13:30:50;;;;;;;24.83;10.53;;;;;;;;;;5070904;28;20227;-80
2023/12/24 13:33:20;;;;;;;19.70;9.70;;;;;;;;;;5070696;28;20223;-79
2023/12/24 13:35:48;;;;;;;21.17;10.30;;;;;;;;;;5070478;28;20276;-79
2023/12/24 13:38:19;;;;;;;65.40;27.03;;;;;;;;;;5070018;28;20289;-82
2023/12/24 13:40:48;;;;;;;41.77;19.77;;;;;;;;;;5067836;28;20636;-80
2023/12/24 13:43:15;;;;;;;40.83;16.20;;;;;;;;;;5069553;28;20570;-81
2023/12/24 13:45:42;;;;;;;44.03;19.50;;;;;;;;;;5071632;28;20219;-81
2023/12/24 13:48:11;;;;;;;32.87;12.93;;;;;;;;;;5068938;28;20243;-81
2023/12/24 13:50:43;;;;;;;29.70;11.47;;;;;;;;;;5065703;28;20234;-81
2023/12/24 13:53:10;;;;;;;23.87;10.00;;;;;;;;;;5068319;28;20239;-80
2023/12/24 13:55:58;;;;;;;26.50;11.10;;;;;;;;;;5070689;28;20234;-81
2023/12/24 13:58:26;;;;;;;58.23;18.63;;;;;;;;;;5070552;28;20231;-81
2023/12/24 14:00:54;;;;;;;25.73;10.30;;;;;;;;;;5067141;28;20231;-81
2023/12/24 14:03:21;;;;;;;24.07;10.10;;;;;;;;;;5070019;28;20230;-80
2023/12/24 14:05:51;;;;;;;37.80;11.53;;;;;;;;;;5069265;28;20645;-81
2023/12/24 14:08:20;;;;;;;30.33;9.93;;;;;;;;;;5069802;28;20227;-81
2023/12/24 14:10:48;;;;;;;29.37;11.63;;;;;;;;;;5069337;28;20220;-80
2023/12/24 14:13:15;;;;;;;20.97;9.33;;;;;;;;;;5068434;28;20277;-80
2023/12/24 14:15:42;;;;;;;20.37;9.87;;;;;;;;;;5068930;28;20219;-81
2023/12/24 14:18:09;;;;;;;22.57;9.43;;;;;;;;;;5066342;28;20695;-80
2023/12/24 14:20:38;;;;;;;32.17;12.10;;;;;;;;;;5069567;28;20251;-80
2023/12/24 14:23:05;;;;;;;29.00;9.93;;;;;;;;;;5067661;28;20261;-81
2023/12/24 14:25:32;;;;;;;20.67;10.33;;;;;;;;;;5069988;28;20695;-81
2023/12/24 14:27:59;;;;;;;192.93;84.90;;;;;;;;;;5069774;28;20231;-81
2023/12/24 14:30:26;;;;;;;109.67;43.57;;;;;;;;;;5070359;28;20235;-80
2023/12/24 14:32:53;;;;;;;48.73;17.83;;;;;;;;;;5070700;28;20235;-81
2023/12/24 14:35:22;;;;;;;61.23;29.13;;;;;;;;;;5073531;28;20223;-81
2023/12/24 14:37:48;;;;;;;43.03;20.80;;;;;;;;;;5073391;28;20227;-81
2023/12/24 14:40:16;;;;;;;39.80;12.57;;;;;;;;;;5073809;28;20239;-81